sensor_id;sensor_type;location;lat;lon;timestamp;P1;durP1;ratioP1;P2;durP2;ratioP2
51780;SDS011;37844;57.126;24.288;2023-02-01T00:01:50;12.18;;;5.07;;
51780;SDS011;37844;57.126;24.288;2023-02-01T00:04:16;18.95;;;5.50;;
51780;SDS011;37844;57.126;24.288;2023-02-01T00:06:41;15.45;;;4.90;;
51780;SDS011;37844;57.126;24.288;2023-02-01T00:09:07;20.70;;;5.53;;
51780;SDS011;37844;57.126;24.288;2023-02-01T00:11:33;12.85;;;4.93;;
51780;SDS011;37844;57.126;24.288;2023-02-01T00:13:59;12.35;;;4.65;;
51780;SDS011;37844;57.126;24.288;2023-02-01T00:16:25;11.98;;;5.55;;
51780;SDS011;37844;57.126;24.288;2023-02-01T00:21:38;16.92;;;4.80;;
51780;SDS011;37844;57.126;24.288;2023-02-01T00:24:03;16.38;;;4.78;;
51780;SDS011;37844;57.126;24.288;2023-02-01T00:26:37;14.90;;;5.82;;
51780;SDS011;37844;57.126;24.288;2023-02-01T00:29:05;13.27;;;4.55;;
51780;SDS011;37844;57.126;24.288;2023-02-01T00:31:34;21.23;;;4.38;;
51780;SDS011;37844;57.126;24.288;2023-02-01T00:33:59;10.65;;;5.13;;
51780;SDS011;37844;57.126;24.288;2023-02-01T00:36:25;16.13;;;5.40;;
51780;SDS011;37844;57.126;24.288;2023-02-01T00:38:51;11.45;;;4.70;;
51780;SDS011;37844;57.126;24.288;2023-02-01T00:41:17;13.82;;;5.93;;
51780;SDS011;37844;57.126;24.288;2023-02-01T00:43:44;11.32;;;4.90;;
51780;SDS011;37844;57.126;24.288;2023-02-01T00:46:11;12.85;;;4.47;;
51780;SDS011;37844;57.126;24.288;2023-02-01T00:48:38;11.68;;;5.85;;
51780;SDS011;37844;57.126;24.288;2023-02-01T00:51:05;12.55;;;5.43;;
51780;SDS011;37844;57.126;24.288;2023-02-01T00:53:33;13.82;;;4.43;;
51780;SDS011;37844;57.126;24.288;2023-02-01T00:55:59;13.32;;;4.45;;
51780;SDS011;37844;57.126;24.288;2023-02-01T00:58:24;14.15;;;5.63;;
51780;SDS011;37844;57.126;24.288;2023-02-01T01:01:00;12.23;;;5.65;;
51780;SDS011;37844;57.126;24.288;2023-02-01T01:03:28;11.20;;;4.97;;
51780;SDS011;37844;57.126;24.288;2023-02-01T01:05:58;12.75;;;4.22;;
51780;SDS011;37844;57.126;24.288;2023-02-01T01:08:24;11.88;;;4.97;;
51780;SDS011;37844;57.126;24.288;2023-02-01T01:10:49;9.15;;;4.70;;
51780;SDS011;37844;57.126;24.288;2023-02-01T01:13:15;7.88;;;4.88;;
51780;SDS011;37844;57.126;24.288;2023-02-01T01:15:40;16.63;;;5.47;;
51780;SDS011;37844;57.126;24.288;2023-02-01T01:18:06;9.88;;;4.93;;
51780;SDS011;37844;57.126;24.288;2023-02-01T01:20:35;18.70;;;5.00;;
51780;SDS011;37844;57.126;24.288;2023-02-01T01:23:03;7.85;;;4.55;;
51780;SDS011;37844;57.126;24.288;2023-02-01T01:25:29;14.25;;;5.03;;
51780;SDS011;37844;57.126;24.288;2023-02-01T01:27:55;12.27;;;5.40;;
51780;SDS011;37844;57.126;24.288;2023-02-01T01:30:20;17.50;;;4.82;;
51780;SDS011;37844;57.126;24.288;2023-02-01T01:32:46;14.68;;;5.40;;
51780;SDS011;37844;57.126;24.288;2023-02-01T01:35:12;18.50;;;4.90;;
51780;SDS011;37844;57.126;24.288;2023-02-01T01:37:37;10.07;;;6.05;;
51780;SDS011;37844;57.126;24.288;2023-02-01T01:40:04;15.55;;;5.38;;
51780;SDS011;37844;57.126;24.288;2023-02-01T01:42:36;12.40;;;4.63;;
51780;SDS011;37844;57.126;24.288;2023-02-01T01:47:38;12.35;;;4.50;;
51780;SDS011;37844;57.126;24.288;2023-02-01T01:50:09;9.43;;;4.70;;
51780;SDS011;37844;57.126;24.288;2023-02-01T01:52:37;5.95;;;4.00;;
51780;SDS011;37844;57.126;24.288;2023-02-01T01:55:05;11.88;;;5.57;;
51780;SDS011;37844;57.126;24.288;2023-02-01T01:57:36;14.40;;;4.72;;
51780;SDS011;37844;57.126;24.288;2023-02-01T02:00:11;10.35;;;5.05;;
51780;SDS011;37844;57.126;24.288;2023-02-01T02:02:39;13.40;;;4.53;;
51780;SDS011;37844;57.126;24.288;2023-02-01T02:05:07;9.30;;;4.90;;
51780;SDS011;37844;57.126;24.288;2023-02-01T02:07:35;10.65;;;4.20;;
51780;SDS011;37844;57.126;24.288;2023-02-01T02:10:06;7.03;;;4.10;;
51780;SDS011;37844;57.126;24.288;2023-02-01T02:12:37;10.60;;;5.28;;
51780;SDS011;37844;57.126;24.288;2023-02-01T02:15:05;10.30;;;5.22;;
51780;SDS011;37844;57.126;24.288;2023-02-01T02:23:12;9.10;;;5.30;;
51780;SDS011;37844;57.126;24.288;2023-02-01T02:39:24;14.05;;;5.75;;
51780;SDS011;37844;57.126;24.288;2023-02-01T02:56:02;10.50;;;4.75;;
51780;SDS011;37844;57.126;24.288;2023-02-01T02:58:49;11.30;;;5.70;;
51780;SDS011;37844;57.126;24.288;2023-02-01T03:01:35;9.98;;;5.30;;
51780;SDS011;37844;57.126;24.288;2023-02-01T03:04:19;11.55;;;4.97;;
51780;SDS011;37844;57.126;24.288;2023-02-01T03:06:46;11.02;;;5.20;;
51780;SDS011;37844;57.126;24.288;2023-02-01T03:09:18;10.00;;;4.82;;
51780;SDS011;37844;57.126;24.288;2023-02-01T03:11:49;11.50;;;5.95;;
51780;SDS011;37844;57.126;24.288;2023-02-01T03:14:40;15.00;;;5.10;;
51780;SDS011;37844;57.126;24.288;2023-02-01T03:17:14;11.65;;;5.22;;
51780;SDS011;37844;57.126;24.288;2023-02-01T03:19:45;8.18;;;4.95;;
51780;SDS011;37844;57.126;24.288;2023-02-01T03:22:20;6.78;;;4.53;;
51780;SDS011;37844;57.126;24.288;2023-02-01T03:25:10;6.72;;;3.80;;
51780;SDS011;37844;57.126;24.288;2023-02-01T03:27:55;11.85;;;4.55;;
51780;SDS011;37844;57.126;24.288;2023-02-01T03:30:33;8.38;;;3.47;;
51780;SDS011;37844;57.126;24.288;2023-02-01T03:33:02;7.55;;;4.22;;
51780;SDS011;37844;57.126;24.288;2023-02-01T03:35:46;6.10;;;3.42;;
51780;SDS011;37844;57.126;24.288;2023-02-01T03:43:50;9.27;;;4.38;;
51780;SDS011;37844;57.126;24.288;2023-02-01T03:46:21;9.93;;;4.38;;
51780;SDS011;37844;57.126;24.288;2023-02-01T03:48:59;11.43;;;4.65;;
51780;SDS011;37844;57.126;24.288;2023-02-01T03:51:28;8.27;;;4.50;;
51780;SDS011;37844;57.126;24.288;2023-02-01T03:53:54;7.43;;;4.90;;
51780;SDS011;37844;57.126;24.288;2023-02-01T03:56:22;10.40;;;5.00;;
51780;SDS011;37844;57.126;24.288;2023-02-01T03:58:50;8.63;;;4.90;;
51780;SDS011;37844;57.126;24.288;2023-02-01T04:01:26;10.18;;;5.80;;
51780;SDS011;37844;57.126;24.288;2023-02-01T04:03:53;8.02;;;4.28;;
51780;SDS011;37844;57.126;24.288;2023-02-01T04:06:19;10.52;;;5.18;;
51780;SDS011;37844;57.126;24.288;2023-02-01T04:08:45;12.88;;;5.57;;
51780;SDS011;37844;57.126;24.288;2023-02-01T04:11:11;8.80;;;4.90;;
51780;SDS011;37844;57.126;24.288;2023-02-01T04:13:36;6.78;;;4.45;;
51780;SDS011;37844;57.126;24.288;2023-02-01T04:16:02;9.13;;;4.68;;
51780;SDS011;37844;57.126;24.288;2023-02-01T04:18:27;8.15;;;5.10;;
51780;SDS011;37844;57.126;24.288;2023-02-01T04:20:53;9.77;;;5.72;;
51780;SDS011;37844;57.126;24.288;2023-02-01T04:23:18;9.88;;;5.88;;
51780;SDS011;37844;57.126;24.288;2023-02-01T04:25:44;11.82;;;6.05;;
51780;SDS011;37844;57.126;24.288;2023-02-01T04:28:10;9.82;;;6.30;;
51780;SDS011;37844;57.126;24.288;2023-02-01T04:30:35;10.68;;;5.78;;
51780;SDS011;37844;57.126;24.288;2023-02-01T04:33:01;8.30;;;5.15;;
51780;SDS011;37844;57.126;24.288;2023-02-01T04:35:28;12.07;;;7.00;;
51780;SDS011;37844;57.126;24.288;2023-02-01T04:37:54;12.18;;;7.00;;
51780;SDS011;37844;57.126;24.288;2023-02-01T04:40:19;12.35;;;6.95;;
51780;SDS011;37844;57.126;24.288;2023-02-01T04:42:44;10.23;;;6.70;;
51780;SDS011;37844;57.126;24.288;2023-02-01T04:45:10;13.68;;;6.55;;
51780;SDS011;37844;57.126;24.288;2023-02-01T04:47:36;11.43;;;5.65;;
51780;SDS011;37844;57.126;24.288;2023-02-01T04:50:01;12.15;;;6.57;;
51780;SDS011;37844;57.126;24.288;2023-02-01T04:52:27;11.55;;;6.60;;
51780;SDS011;37844;57.126;24.288;2023-02-01T04:54:52;9.68;;;6.15;;
51780;SDS011;37844;57.126;24.288;2023-02-01T04:57:19;12.60;;;7.22;;
51780;SDS011;37844;57.126;24.288;2023-02-01T04:59:52;11.38;;;6.70;;
51780;SDS011;37844;57.126;24.288;2023-02-01T05:02:18;14.40;;;6.72;;
51780;SDS011;37844;57.126;24.288;2023-02-01T05:04:43;11.95;;;6.25;;
51780;SDS011;37844;57.126;24.288;2023-02-01T05:07:15;14.63;;;6.35;;
51780;SDS011;37844;57.126;24.288;2023-02-01T05:09:41;12.48;;;7.20;;
51780;SDS011;37844;57.126;24.288;2023-02-01T05:12:07;11.30;;;6.40;;
51780;SDS011;37844;57.126;24.288;2023-02-01T05:14:53;14.65;;;6.97;;
51780;SDS011;37844;57.126;24.288;2023-02-01T05:17:18;12.63;;;8.52;;
51780;SDS011;37844;57.126;24.288;2023-02-01T05:19:43;11.07;;;7.30;;
51780;SDS011;37844;57.126;24.288;2023-02-01T05:22:09;12.98;;;6.43;;
51780;SDS011;37844;57.126;24.288;2023-02-01T05:24:34;11.20;;;7.57;;
51780;SDS011;37844;57.126;24.288;2023-02-01T05:27:00;16.38;;;6.70;;
51780;SDS011;37844;57.126;24.288;2023-02-01T05:29:25;14.85;;;6.88;;
51780;SDS011;37844;57.126;24.288;2023-02-01T05:31:51;12.57;;;6.90;;
51780;SDS011;37844;57.126;24.288;2023-02-01T05:34:16;15.75;;;6.75;;
51780;SDS011;37844;57.126;24.288;2023-02-01T05:36:42;13.27;;;7.22;;
51780;SDS011;37844;57.126;24.288;2023-02-01T05:39:07;12.80;;;7.90;;
51780;SDS011;37844;57.126;24.288;2023-02-01T05:41:34;13.35;;;7.25;;
51780;SDS011;37844;57.126;24.288;2023-02-01T05:44:00;13.48;;;7.70;;
51780;SDS011;37844;57.126;24.288;2023-02-01T05:46:25;17.40;;;8.63;;
51780;SDS011;37844;57.126;24.288;2023-02-01T05:48:50;14.13;;;8.27;;
51780;SDS011;37844;57.126;24.288;2023-02-01T05:51:16;17.50;;;8.45;;
51780;SDS011;37844;57.126;24.288;2023-02-01T05:53:41;14.90;;;8.35;;
51780;SDS011;37844;57.126;24.288;2023-02-01T05:56:07;14.60;;;8.50;;
51780;SDS011;37844;57.126;24.288;2023-02-01T05:58:32;17.75;;;9.10;;
51780;SDS011;37844;57.126;24.288;2023-02-01T06:01:02;14.52;;;7.70;;
51780;SDS011;37844;57.126;24.288;2023-02-01T06:03:34;18.35;;;8.85;;
51780;SDS011;37844;57.126;24.288;2023-02-01T06:06:00;12.48;;;8.05;;
51780;SDS011;37844;57.126;24.288;2023-02-01T06:08:26;14.68;;;8.02;;
51780;SDS011;37844;57.126;24.288;2023-02-01T06:10:57;19.77;;;8.80;;
51780;SDS011;37844;57.126;24.288;2023-02-01T06:13:23;12.82;;;8.63;;
51780;SDS011;37844;57.126;24.288;2023-02-01T06:15:49;20.42;;;8.60;;
51780;SDS011;37844;57.126;24.288;2023-02-01T06:18:14;20.55;;;8.82;;
51780;SDS011;37844;57.126;24.288;2023-02-01T06:20:40;13.27;;;8.57;;
51780;SDS011;37844;57.126;24.288;2023-02-01T06:23:06;23.25;;;8.68;;
51780;SDS011;37844;57.126;24.288;2023-02-01T06:25:38;19.33;;;9.05;;
51780;SDS011;37844;57.126;24.288;2023-02-01T06:28:10;16.35;;;8.88;;
51780;SDS011;37844;57.126;24.288;2023-02-01T06:30:35;12.00;;;7.93;;
51780;SDS011;37844;57.126;24.288;2023-02-01T06:33:01;20.15;;;10.23;;
51780;SDS011;37844;57.126;24.288;2023-02-01T06:35:27;19.50;;;9.52;;
51780;SDS011;37844;57.126;24.288;2023-02-01T06:37:52;23.10;;;8.75;;
51780;SDS011;37844;57.126;24.288;2023-02-01T06:40:18;23.85;;;8.10;;
51780;SDS011;37844;57.126;24.288;2023-02-01T06:42:43;21.45;;;9.52;;
51780;SDS011;37844;57.126;24.288;2023-02-01T06:45:09;18.45;;;8.10;;
51780;SDS011;37844;57.126;24.288;2023-02-01T06:47:35;17.02;;;8.00;;
51780;SDS011;37844;57.126;24.288;2023-02-01T06:50:00;20.63;;;8.52;;
51780;SDS011;37844;57.126;24.288;2023-02-01T06:52:26;13.77;;;8.02;;
51780;SDS011;37844;57.126;24.288;2023-02-01T06:54:51;15.23;;;8.77;;
51780;SDS011;37844;57.126;24.288;2023-02-01T06:57:17;15.90;;;7.72;;
51780;SDS011;37844;57.126;24.288;2023-02-01T06:59:42;13.93;;;7.90;;
51780;SDS011;37844;57.126;24.288;2023-02-01T07:02:11;16.52;;;8.13;;
51780;SDS011;37844;57.126;24.288;2023-02-01T07:04:37;19.20;;;7.80;;
51780;SDS011;37844;57.126;24.288;2023-02-01T07:07:03;21.55;;;8.98;;
51780;SDS011;37844;57.126;24.288;2023-02-01T07:09:28;17.58;;;7.28;;
51780;SDS011;37844;57.126;24.288;2023-02-01T07:11:53;20.80;;;7.32;;
51780;SDS011;37844;57.126;24.288;2023-02-01T07:14:19;13.10;;;7.95;;
51780;SDS011;37844;57.126;24.288;2023-02-01T07:16:44;14.38;;;8.07;;
51780;SDS011;37844;57.126;24.288;2023-02-01T07:19:10;20.20;;;7.82;;
51780;SDS011;37844;57.126;24.288;2023-02-01T07:21:35;19.00;;;8.18;;
51780;SDS011;37844;57.126;24.288;2023-02-01T07:24:01;17.98;;;8.02;;
51780;SDS011;37844;57.126;24.288;2023-02-01T07:26:26;21.02;;;8.00;;
51780;SDS011;37844;57.126;24.288;2023-02-01T07:28:52;22.20;;;10.05;;
51780;SDS011;37844;57.126;24.288;2023-02-01T07:31:18;25.80;;;8.93;;
51780;SDS011;37844;57.126;24.288;2023-02-01T07:33:46;16.85;;;8.13;;
51780;SDS011;37844;57.126;24.288;2023-02-01T07:36:12;18.27;;;7.30;;
51780;SDS011;37844;57.126;24.288;2023-02-01T07:38:39;22.85;;;7.10;;
51780;SDS011;37844;57.126;24.288;2023-02-01T07:41:05;18.58;;;7.88;;
51780;SDS011;37844;57.126;24.288;2023-02-01T07:43:31;20.15;;;9.05;;
51780;SDS011;37844;57.126;24.288;2023-02-01T07:45:58;19.73;;;8.75;;
51780;SDS011;37844;57.126;24.288;2023-02-01T07:48:24;14.63;;;6.97;;
51780;SDS011;37844;57.126;24.288;2023-02-01T07:51:01;15.02;;;7.57;;
51780;SDS011;37844;57.126;24.288;2023-02-01T07:53:26;20.40;;;7.45;;
51780;SDS011;37844;57.126;24.288;2023-02-01T07:55:54;14.02;;;7.35;;
51780;SDS011;37844;57.126;24.288;2023-02-01T07:58:21;14.15;;;7.63;;
51780;SDS011;37844;57.126;24.288;2023-02-01T08:00:47;15.77;;;7.38;;
51780;SDS011;37844;57.126;24.288;2023-02-01T08:03:30;17.67;;;7.03;;
51780;SDS011;37844;57.126;24.288;2023-02-01T08:05:56;18.27;;;6.88;;
51780;SDS011;37844;57.126;24.288;2023-02-01T08:08:22;14.63;;;7.30;;
51780;SDS011;37844;57.126;24.288;2023-02-01T08:10:47;13.85;;;6.68;;
51780;SDS011;37844;57.126;24.288;2023-02-01T08:13:13;18.38;;;6.72;;
51780;SDS011;37844;57.126;24.288;2023-02-01T08:15:39;14.80;;;6.90;;
51780;SDS011;37844;57.126;24.288;2023-02-01T08:18:04;18.63;;;8.15;;
51780;SDS011;37844;57.126;24.288;2023-02-01T08:20:30;19.90;;;7.65;;
51780;SDS011;37844;57.126;24.288;2023-02-01T08:22:56;15.35;;;7.43;;
51780;SDS011;37844;57.126;24.288;2023-02-01T08:25:22;18.20;;;8.45;;
51780;SDS011;37844;57.126;24.288;2023-02-01T08:27:48;20.65;;;7.93;;
51780;SDS011;37844;57.126;24.288;2023-02-01T08:30:14;20.73;;;9.30;;
51780;SDS011;37844;57.126;24.288;2023-02-01T08:32:40;18.40;;;8.75;;
51780;SDS011;37844;57.126;24.288;2023-02-01T08:35:06;18.30;;;8.75;;
51780;SDS011;37844;57.126;24.288;2023-02-01T08:37:32;24.80;;;9.20;;
51780;SDS011;37844;57.126;24.288;2023-02-01T08:39:58;17.77;;;7.53;;
51780;SDS011;37844;57.126;24.288;2023-02-01T08:42:23;21.25;;;8.30;;
51780;SDS011;37844;57.126;24.288;2023-02-01T08:45:08;16.10;;;9.88;;
51780;SDS011;37844;57.126;24.288;2023-02-01T08:47:34;15.75;;;7.60;;
51780;SDS011;37844;57.126;24.288;2023-02-01T08:49:59;24.77;;;8.02;;
51780;SDS011;37844;57.126;24.288;2023-02-01T08:52:25;20.20;;;7.22;;
51780;SDS011;37844;57.126;24.288;2023-02-01T08:54:51;18.40;;;8.30;;
51780;SDS011;37844;57.126;24.288;2023-02-01T08:57:16;15.88;;;6.97;;
51780;SDS011;37844;57.126;24.288;2023-02-01T08:59:42;16.58;;;7.90;;
51780;SDS011;37844;57.126;24.288;2023-02-01T09:02:12;15.48;;;7.55;;
51780;SDS011;37844;57.126;24.288;2023-02-01T09:04:39;17.48;;;7.18;;
51780;SDS011;37844;57.126;24.288;2023-02-01T09:07:05;16.15;;;7.28;;
51780;SDS011;37844;57.126;24.288;2023-02-01T09:09:30;14.02;;;7.68;;
51780;SDS011;37844;57.126;24.288;2023-02-01T09:11:56;19.10;;;8.38;;
51780;SDS011;37844;57.126;24.288;2023-02-01T09:14:21;19.52;;;9.20;;
51780;SDS011;37844;57.126;24.288;2023-02-01T09:16:47;23.48;;;8.55;;
51780;SDS011;37844;57.126;24.288;2023-02-01T09:19:12;22.42;;;7.80;;
51780;SDS011;37844;57.126;24.288;2023-02-01T09:21:39;16.40;;;8.05;;
51780;SDS011;37844;57.126;24.288;2023-02-01T09:24:04;18.45;;;7.70;;
51780;SDS011;37844;57.126;24.288;2023-02-01T09:26:30;18.83;;;9.07;;
51780;SDS011;37844;57.126;24.288;2023-02-01T09:28:55;15.88;;;8.35;;
51780;SDS011;37844;57.126;24.288;2023-02-01T09:31:21;22.38;;;8.00;;
51780;SDS011;37844;57.126;24.288;2023-02-01T09:33:46;26.10;;;10.52;;
51780;SDS011;37844;57.126;24.288;2023-02-01T09:36:12;19.95;;;8.80;;
51780;SDS011;37844;57.126;24.288;2023-02-01T09:38:37;16.23;;;9.50;;
51780;SDS011;37844;57.126;24.288;2023-02-01T09:41:07;18.73;;;7.78;;
51780;SDS011;37844;57.126;24.288;2023-02-01T09:43:50;23.00;;;9.20;;
51780;SDS011;37844;57.126;24.288;2023-02-01T09:46:41;17.73;;;9.55;;
51780;SDS011;37844;57.126;24.288;2023-02-01T09:49:18;23.25;;;9.18;;
51780;SDS011;37844;57.126;24.288;2023-02-01T09:51:50;18.80;;;9.95;;
51780;SDS011;37844;57.126;24.288;2023-02-01T09:54:22;22.13;;;9.27;;
51780;SDS011;37844;57.126;24.288;2023-02-01T09:59:40;26.67;;;10.00;;
51780;SDS011;37844;57.126;24.288;2023-02-01T10:02:14;20.35;;;8.45;;
51780;SDS011;37844;57.126;24.288;2023-02-01T10:04:40;22.23;;;9.55;;
51780;SDS011;37844;57.126;24.288;2023-02-01T10:20:36;23.42;;;10.60;;
51780;SDS011;37844;57.126;24.288;2023-02-01T10:26:21;21.98;;;10.05;;
51780;SDS011;37844;57.126;24.288;2023-02-01T10:28:49;20.23;;;9.35;;
51780;SDS011;37844;57.126;24.288;2023-02-01T10:31:17;28.42;;;12.48;;
51780;SDS011;37844;57.126;24.288;2023-02-01T10:33:45;17.73;;;11.40;;
51780;SDS011;37844;57.126;24.288;2023-02-01T10:36:15;20.23;;;10.07;;
51780;SDS011;37844;57.126;24.288;2023-02-01T10:38:52;18.85;;;10.50;;
51780;SDS011;37844;57.126;24.288;2023-02-01T10:41:21;18.25;;;10.95;;
51780;SDS011;37844;57.126;24.288;2023-02-01T10:43:54;18.40;;;9.52;;
51780;SDS011;37844;57.126;24.288;2023-02-01T10:46:22;15.25;;;8.57;;
51780;SDS011;37844;57.126;24.288;2023-02-01T10:48:49;21.70;;;10.18;;
51780;SDS011;37844;57.126;24.288;2023-02-01T10:51:27;17.45;;;7.97;;
51780;SDS011;37844;57.126;24.288;2023-02-01T10:54:05;13.27;;;8.15;;
51780;SDS011;37844;57.126;24.288;2023-02-01T10:56:40;13.27;;;8.23;;
51780;SDS011;37844;57.126;24.288;2023-02-01T10:59:16;17.00;;;9.13;;
51780;SDS011;37844;57.126;24.288;2023-02-01T11:01:44;14.48;;;8.52;;
51780;SDS011;37844;57.126;24.288;2023-02-01T11:04:15;15.85;;;8.82;;
51780;SDS011;37844;57.126;24.288;2023-02-01T11:06:45;13.88;;;7.47;;
51780;SDS011;37844;57.126;24.288;2023-02-01T11:09:16;11.75;;;8.10;;
51780;SDS011;37844;57.126;24.288;2023-02-01T11:14:18;15.45;;;8.48;;
51780;SDS011;37844;57.126;24.288;2023-02-01T11:16:49;18.58;;;9.63;;
51780;SDS011;37844;57.126;24.288;2023-02-01T11:19:25;18.35;;;8.20;;
51780;SDS011;37844;57.126;24.288;2023-02-01T11:21:55;18.15;;;9.73;;
51780;SDS011;37844;57.126;24.288;2023-02-01T11:24:34;20.88;;;10.55;;
51780;SDS011;37844;57.126;24.288;2023-02-01T11:27:04;14.93;;;8.45;;
51780;SDS011;37844;57.126;24.288;2023-02-01T11:29:38;19.83;;;8.55;;
51780;SDS011;37844;57.126;24.288;2023-02-01T11:32:07;18.92;;;9.18;;
51780;SDS011;37844;57.126;24.288;2023-02-01T11:34:43;18.35;;;8.98;;
51780;SDS011;37844;57.126;24.288;2023-02-01T11:37:24;19.88;;;10.05;;
51780;SDS011;37844;57.126;24.288;2023-02-01T11:39:57;14.85;;;10.65;;
51780;SDS011;37844;57.126;24.288;2023-02-01T11:42:29;14.82;;;9.27;;
51780;SDS011;37844;57.126;24.288;2023-02-01T11:45:15;16.65;;;9.68;;
51780;SDS011;37844;57.126;24.288;2023-02-01T11:47:43;17.77;;;9.75;;
51780;SDS011;37844;57.126;24.288;2023-02-01T11:50:28;18.30;;;8.77;;
51780;SDS011;37844;57.126;24.288;2023-02-01T11:53:18;14.75;;;8.85;;
51780;SDS011;37844;57.126;24.288;2023-02-01T12:14:11;13.02;;;7.97;;
51780;SDS011;37844;57.126;24.288;2023-02-01T12:24:35;16.00;;;7.82;;
51780;SDS011;37844;57.126;24.288;2023-02-01T12:27:39;13.25;;;6.85;;
51780;SDS011;37844;57.126;24.288;2023-02-01T12:44:32;11.80;;;7.70;;
51780;SDS011;37844;57.126;24.288;2023-02-01T12:49:50;14.40;;;9.20;;
51780;SDS011;37844;57.126;24.288;2023-02-01T12:52:55;14.50;;;8.80;;
51780;SDS011;37844;57.126;24.288;2023-02-01T12:55:19;12.60;;;8.23;;
51780;SDS011;37844;57.126;24.288;2023-02-01T12:58:11;15.65;;;9.70;;
51780;SDS011;37844;57.126;24.288;2023-02-01T13:00:57;19.85;;;10.63;;
51780;SDS011;37844;57.126;24.288;2023-02-01T13:06:37;21.20;;;12.65;;
51780;SDS011;37844;57.126;24.288;2023-02-01T13:11:55;22.40;;;13.32;;
51780;SDS011;37844;57.126;24.288;2023-02-01T13:25:26;21.63;;;10.27;;
51780;SDS011;37844;57.126;24.288;2023-02-01T13:27:54;26.08;;;15.10;;
51780;SDS011;37844;57.126;24.288;2023-02-01T13:31:17;31.23;;;19.85;;
51780;SDS011;37844;57.126;24.288;2023-02-01T13:33:37;33.28;;;20.23;;
51780;SDS011;37844;57.126;24.288;2023-02-01T13:45:00;44.70;;;24.60;;
51780;SDS011;37844;57.126;24.288;2023-02-01T13:52:26;29.42;;;16.27;;
51780;SDS011;37844;57.126;24.288;2023-02-01T13:57:40;26.42;;;15.55;;
51780;SDS011;37844;57.126;24.288;2023-02-01T14:13:34;19.83;;;12.18;;
51780;SDS011;37844;57.126;24.288;2023-02-01T14:26:43;16.73;;;12.68;;
51780;SDS011;37844;57.126;24.288;2023-02-01T14:29:19;21.58;;;13.00;;
51780;SDS011;37844;57.126;24.288;2023-02-01T14:47:42;26.67;;;14.80;;
51780;SDS011;37844;57.126;24.288;2023-02-01T14:52:39;32.60;;;18.10;;
51780;SDS011;37844;57.126;24.288;2023-02-01T14:55:11;37.22;;;24.40;;
51780;SDS011;37844;57.126;24.288;2023-02-01T14:57:43;36.95;;;24.60;;
51780;SDS011;37844;57.126;24.288;2023-02-01T15:00:18;61.00;;;37.85;;
51780;SDS011;37844;57.126;24.288;2023-02-01T15:02:47;60.53;;;39.35;;
51780;SDS011;37844;57.126;24.288;2023-02-01T15:05:26;43.97;;;27.63;;
51780;SDS011;37844;57.126;24.288;2023-02-01T15:07:51;37.20;;;25.27;;
51780;SDS011;37844;57.126;24.288;2023-02-01T15:10:18;38.83;;;26.77;;
51780;SDS011;37844;57.126;24.288;2023-02-01T15:12:46;48.38;;;33.95;;
51780;SDS011;37844;57.126;24.288;2023-02-01T15:15:20;66.38;;;28.83;;
51780;SDS011;37844;57.126;24.288;2023-02-01T15:17:54;87.13;;;33.72;;
51780;SDS011;37844;57.126;24.288;2023-02-01T15:20:29;100.25;;;37.08;;
51780;SDS011;37844;57.126;24.288;2023-02-01T15:23:00;114.30;;;47.00;;
51780;SDS011;37844;57.126;24.288;2023-02-01T15:25:31;109.93;;;39.72;;
51780;SDS011;37844;57.126;24.288;2023-02-01T15:28:02;69.93;;;33.17;;
51780;SDS011;37844;57.126;24.288;2023-02-01T15:30:32;45.88;;;27.77;;
51780;SDS011;37844;57.126;24.288;2023-02-01T15:33:15;51.95;;;30.77;;
51780;SDS011;37844;57.126;24.288;2023-02-01T15:35:43;33.53;;;23.60;;
51780;SDS011;37844;57.126;24.288;2023-02-01T15:38:34;30.07;;;19.33;;
51780;SDS011;37844;57.126;24.288;2023-02-01T15:41:06;24.90;;;19.23;;
51780;SDS011;37844;57.126;24.288;2023-02-01T15:46:23;42.78;;;31.75;;
51780;SDS011;37844;57.126;24.288;2023-02-01T15:48:55;44.55;;;31.92;;
51780;SDS011;37844;57.126;24.288;2023-02-01T15:51:22;26.08;;;20.42;;
51780;SDS011;37844;57.126;24.288;2023-02-01T15:53:53;25.30;;;15.90;;
51780;SDS011;37844;57.126;24.288;2023-02-01T15:56:23;23.20;;;13.57;;
51780;SDS011;37844;57.126;24.288;2023-02-01T15:58:55;28.17;;;17.45;;
51780;SDS011;37844;57.126;24.288;2023-02-01T16:01:23;21.08;;;14.88;;
51780;SDS011;37844;57.126;24.288;2023-02-01T16:03:49;22.25;;;15.30;;
51780;SDS011;37844;57.126;24.288;2023-02-01T16:06:28;28.45;;;20.50;;
51780;SDS011;37844;57.126;24.288;2023-02-01T16:09:01;25.70;;;18.88;;
51780;SDS011;37844;57.126;24.288;2023-02-01T16:11:40;28.45;;;18.80;;
51780;SDS011;37844;57.126;24.288;2023-02-01T16:14:26;24.85;;;18.65;;
51780;SDS011;37844;57.126;24.288;2023-02-01T16:16:53;27.42;;;17.45;;
51780;SDS011;37844;57.126;24.288;2023-02-01T16:19:20;20.75;;;15.52;;
51780;SDS011;37844;57.126;24.288;2023-02-01T16:21:48;21.98;;;16.23;;
51780;SDS011;37844;57.126;24.288;2023-02-01T16:24:14;20.98;;;15.35;;
51780;SDS011;37844;57.126;24.288;2023-02-01T16:26:39;19.63;;;14.43;;
51780;SDS011;37844;57.126;24.288;2023-02-01T16:29:05;19.95;;;14.05;;
51780;SDS011;37844;57.126;24.288;2023-02-01T16:31:35;20.58;;;14.45;;
51780;SDS011;37844;57.126;24.288;2023-02-01T16:34:03;20.77;;;14.65;;
51780;SDS011;37844;57.126;24.288;2023-02-01T16:36:30;27.55;;;19.27;;
51780;SDS011;37844;57.126;24.288;2023-02-01T16:38:56;39.30;;;20.95;;
51780;SDS011;37844;57.126;24.288;2023-02-01T16:41:22;42.22;;;26.73;;
51780;SDS011;37844;57.126;24.288;2023-02-01T16:43:49;45.10;;;25.17;;
51780;SDS011;37844;57.126;24.288;2023-02-01T16:46:18;40.70;;;22.88;;
51780;SDS011;37844;57.126;24.288;2023-02-01T16:48:57;35.45;;;22.10;;
51780;SDS011;37844;57.126;24.288;2023-02-01T16:51:24;33.20;;;23.75;;
51780;SDS011;37844;57.126;24.288;2023-02-01T16:53:53;34.88;;;20.98;;
51780;SDS011;37844;57.126;24.288;2023-02-01T16:56:20;27.77;;;19.80;;
51780;SDS011;37844;57.126;24.288;2023-02-01T16:58:54;27.10;;;16.02;;
51780;SDS011;37844;57.126;24.288;2023-02-01T17:01:24;28.25;;;16.95;;
51780;SDS011;37844;57.126;24.288;2023-02-01T17:03:50;22.42;;;16.27;;
51780;SDS011;37844;57.126;24.288;2023-02-01T17:06:23;31.33;;;17.75;;
51780;SDS011;37844;57.126;24.288;2023-02-01T17:08:56;26.10;;;16.35;;
51780;SDS011;37844;57.126;24.288;2023-02-01T17:11:23;30.58;;;18.45;;
51780;SDS011;37844;57.126;24.288;2023-02-01T17:13:49;28.48;;;16.73;;
51780;SDS011;37844;57.126;24.288;2023-02-01T17:16:19;30.90;;;17.83;;
51780;SDS011;37844;57.126;24.288;2023-02-01T17:18:58;20.08;;;14.93;;
51780;SDS011;37844;57.126;24.288;2023-02-01T17:21:28;27.73;;;14.02;;
51780;SDS011;37844;57.126;24.288;2023-02-01T17:23:55;31.10;;;15.10;;
51780;SDS011;37844;57.126;24.288;2023-02-01T17:26:23;23.08;;;14.10;;
51780;SDS011;37844;57.126;24.288;2023-02-01T17:28:49;21.33;;;12.50;;
51780;SDS011;37844;57.126;24.288;2023-02-01T17:31:15;22.63;;;14.45;;
51780;SDS011;37844;57.126;24.288;2023-02-01T17:33:41;24.38;;;16.48;;
51780;SDS011;37844;57.126;24.288;2023-02-01T17:36:15;26.48;;;16.58;;
51780;SDS011;37844;57.126;24.288;2023-02-01T17:38:42;21.15;;;12.05;;
51780;SDS011;37844;57.126;24.288;2023-02-01T17:41:09;19.85;;;12.40;;